sensor_id;sensor_type;location;lat;lon;timestamp;temperature;humidity
8178;DHT22;4130;48.740;9.132;2023-11-19T00:01:28;7.30;99.90
8178;DHT22;4130;48.740;9.132;2023-11-19T00:03:56;7.40;99.90
8178;DHT22;4130;48.740;9.132;2023-11-19T00:06:24;7.40;99.90
8178;DHT22;4130;48.740;9.132;2023-11-19T00:08:51;7.50;99.90
8178;DHT22;4130;48.740;9.132;2023-11-19T00:11:18;7.60;99.90
8178;DHT22;4130;48.740;9.132;2023-11-19T00:13:48;7.70;99.90
8178;DHT22;4130;48.740;9.132;2023-11-19T00:16:17;7.70;99.90
8178;DHT22;4130;48.740;9.132;2023-11-19T00:18:45;7.80;99.90
8178;DHT22;4130;48.740;9.132;2023-11-19T00:21:24;7.90;99.90
8178;DHT22;4130;48.740;9.132;2023-11-19T00:23:54;8.00;99.90
8178;DHT22;4130;48.740;9.132;2023-11-19T00:26:24;8.00;99.90
8178;DHT22;4130;48.740;9.132;2023-11-19T00:28:54;8.10;99.90
8178;DHT22;4130;48.740;9.132;2023-11-19T00:31:22;8.20;99.90
8178;DHT22;4130;48.740;9.132;2023-11-19T00:33:49;8.20;99.90
8178;DHT22;4130;48.740;9.132;2023-11-19T00:36:18;8.20;99.90
8178;DHT22;4130;48.740;9.132;2023-11-19T00:38:45;8.20;99.90
8178;DHT22;4130;48.740;9.132;2023-11-19T00:41:12;8.30;99.90
8178;DHT22;4130;48.740;9.132;2023-11-19T00:43:41;8.30;99.90
8178;DHT22;4130;48.740;9.132;2023-11-19T00:46:08;8.30;99.90
8178;DHT22;4130;48.740;9.132;2023-11-19T00:48:36;8.30;99.90
8178;DHT22;4130;48.740;9.132;2023-11-19T00:51:04;8.40;99.90
8178;DHT22;4130;48.740;9.132;2023-11-19T00:53:33;8.50;99.90
8178;DHT22;4130;48.740;9.132;2023-11-19T00:56:00;8.50;99.90
8178;DHT22;4130;48.740;9.132;2023-11-19T00:58:27;8.50;99.90
8178;DHT22;4130;48.740;9.132;2023-11-19T01:00:55;8.50;99.90
8178;DHT22;4130;48.740;9.132;2023-11-19T01:03:23;8.60;99.90
8178;DHT22;4130;48.740;9.132;2023-11-19T01:05:50;8.60;99.90
8178;DHT22;4130;48.740;9.132;2023-11-19T01:08:18;8.60;99.90
8178;DHT22;4130;48.740;9.132;2023-11-19T01:10:46;8.70;99.90
8178;DHT22;4130;48.740;9.132;2023-11-19T01:13:13;8.70;99.90
8178;DHT22;4130;48.740;9.132;2023-11-19T01:15:41;8.70;99.90
8178;DHT22;4130;48.740;9.132;2023-11-19T01:18:08;8.80;99.90
8178;DHT22;4130;48.740;9.132;2023-11-19T01:20:36;8.80;99.90
8178;DHT22;4130;48.740;9.132;2023-11-19T01:23:04;8.80;99.90
8178;DHT22;4130;48.740;9.132;2023-11-19T01:25:31;8.90;99.90
8178;DHT22;4130;48.740;9.132;2023-11-19T01:27:59;8.90;99.90
8178;DHT22;4130;48.740;9.132;2023-11-19T01:30:28;8.90;99.90
8178;DHT22;4130;48.740;9.132;2023-11-19T01:32:55;9.00;99.90
8178;DHT22;4130;48.740;9.132;2023-11-19T01:35:31;9.00;99.90
8178;DHT22;4130;48.740;9.132;2023-11-19T01:37:58;9.10;99.90
8178;DHT22;4130;48.740;9.132;2023-11-19T01:40:25;9.10;99.90
8178;DHT22;4130;48.740;9.132;2023-11-19T01:42:52;9.10;99.90
8178;DHT22;4130;48.740;9.132;2023-11-19T01:45:28;9.10;99.90
8178;DHT22;4130;48.740;9.132;2023-11-19T01:47:56;9.10;99.90
8178;DHT22;4130;48.740;9.132;2023-11-19T01:50:24;9.20;99.90
8178;DHT22;4130;48.740;9.132;2023-11-19T01:52:52;9.20;99.90
8178;DHT22;4130;48.740;9.132;2023-11-19T01:55:20;9.20;99.90
8178;DHT22;4130;48.740;9.132;2023-11-19T01:57:48;9.30;99.90
8178;DHT22;4130;48.740;9.132;2023-11-19T02:00:17;9.30;99.90
8178;DHT22;4130;48.740;9.132;2023-11-19T02:02:48;9.30;99.90
8178;DHT22;4130;48.740;9.132;2023-11-19T02:05:15;9.30;99.90
8178;DHT22;4130;48.740;9.132;2023-11-19T02:07:43;9.30;99.90
8178;DHT22;4130;48.740;9.132;2023-11-19T02:12:47;9.30;99.90
8178;DHT22;4130;48.740;9.132;2023-11-19T02:15:14;9.40;99.90
8178;DHT22;4130;48.740;9.132;2023-11-19T02:17:45;9.40;99.90
8178;DHT22;4130;48.740;9.132;2023-11-19T02:20:12;9.40;99.90
8178;DHT22;4130;48.740;9.132;2023-11-19T02:22:40;9.50;99.90
8178;DHT22;4130;48.740;9.132;2023-11-19T02:25:14;9.50;99.90
8178;DHT22;4130;48.740;9.132;2023-11-19T02:27:53;9.50;99.90
8178;DHT22;4130;48.740;9.132;2023-11-19T02:30:22;9.50;99.90
8178;DHT22;4130;48.740;9.132;2023-11-19T02:33:02;9.50;99.90
8178;DHT22;4130;48.740;9.132;2023-11-19T02:35:31;9.50;99.90
8178;DHT22;4130;48.740;9.132;2023-11-19T02:37:59;9.50;99.90
8178;DHT22;4130;48.740;9.132;2023-11-19T02:40:28;9.60;99.90
8178;DHT22;4130;48.740;9.132;2023-11-19T02:42:56;9.60;99.90
8178;DHT22;4130;48.740;9.132;2023-11-19T02:45:23;9.60;99.90
8178;DHT22;4130;48.740;9.132;2023-11-19T02:47:51;9.70;99.90
8178;DHT22;4130;48.740;9.132;2023-11-19T02:50:20;9.70;99.90
8178;DHT22;4130;48.740;9.132;2023-11-19T02:52:52;9.70;99.90
8178;DHT22;4130;48.740;9.132;2023-11-19T02:55:19;9.70;99.90
8178;DHT22;4130;48.740;9.132;2023-11-19T02:57:47;9.70;99.90
8178;DHT22;4130;48.740;9.132;2023-11-19T03:00:17;9.70;99.90
8178;DHT22;4130;48.740;9.132;2023-11-19T03:02:44;9.60;99.90
8178;DHT22;4130;48.740;9.132;2023-11-19T03:05:12;10.20;99.90
8178;DHT22;4130;48.740;9.132;2023-11-19T03:07:40;9.70;99.90
8178;DHT22;4130;48.740;9.132;2023-11-19T03:10:09;9.70;99.90
8178;DHT22;4130;48.740;9.132;2023-11-19T03:12:39;9.80;99.90
8178;DHT22;4130;48.740;9.132;2023-11-19T03:15:07;9.80;99.90
8178;DHT22;4130;48.740;9.132;2023-11-19T03:17:37;9.80;99.90
8178;DHT22;4130;48.740;9.132;2023-11-19T03:20:06;9.90;99.90
8178;DHT22;4130;48.740;9.132;2023-11-19T03:22:35;9.80;99.90
8178;DHT22;4130;48.740;9.132;2023-11-19T03:25:03;9.80;99.90
8178;DHT22;4130;48.740;9.132;2023-11-19T03:27:30;9.90;99.90
8178;DHT22;4130;48.740;9.132;2023-11-19T03:29:57;9.90;99.90
8178;DHT22;4130;48.740;9.132;2023-11-19T03:32:24;9.90;99.90
8178;DHT22;4130;48.740;9.132;2023-11-19T03:34:52;10.00;99.90
8178;DHT22;4130;48.740;9.132;2023-11-19T03:37:19;10.00;99.90
8178;DHT22;4130;48.740;9.132;2023-11-19T03:39:45;9.90;99.90
8178;DHT22;4130;48.740;9.132;2023-11-19T03:42:15;9.90;99.90
8178;DHT22;4130;48.740;9.132;2023-11-19T03:44:41;9.90;99.90
8178;DHT22;4130;48.740;9.132;2023-11-19T03:47:08;9.90;99.90
8178;DHT22;4130;48.740;9.132;2023-11-19T03:49:35;9.90;99.90
8178;DHT22;4130;48.740;9.132;2023-11-19T03:52:04;9.90;99.90
8178;DHT22;4130;48.740;9.132;2023-11-19T03:54:31;9.90;99.90
8178;DHT22;4130;48.740;9.132;2023-11-19T03:56:58;9.90;99.90
8178;DHT22;4130;48.740;9.132;2023-11-19T03:59:25;9.90;99.90
8178;DHT22;4130;48.740;9.132;2023-11-19T04:01:52;9.90;99.90
8178;DHT22;4130;48.740;9.132;2023-11-19T04:04:20;10.00;99.90
8178;DHT22;4130;48.740;9.132;2023-11-19T04:06:49;9.90;99.90
8178;DHT22;4130;48.740;9.132;2023-11-19T04:09:17;10.10;99.90
8178;DHT22;4130;48.740;9.132;2023-11-19T04:11:43;10.00;99.90
8178;DHT22;4130;48.740;9.132;2023-11-19T04:14:12;10.00;99.90
8178;DHT22;4130;48.740;9.132;2023-11-19T04:16:39;10.00;99.90
8178;DHT22;4130;48.740;9.132;2023-11-19T04:19:05;10.00;99.90
8178;DHT22;4130;48.740;9.132;2023-11-19T04:21:33;10.00;99.90
8178;DHT22;4130;48.740;9.132;2023-11-19T04:23:59;9.90;99.90
8178;DHT22;4130;48.740;9.132;2023-11-19T04:26:27;10.00;99.90
8178;DHT22;4130;48.740;9.132;2023-11-19T04:28:54;10.00;99.90
8178;DHT22;4130;48.740;9.132;2023-11-19T04:31:21;10.00;99.90
8178;DHT22;4130;48.740;9.132;2023-11-19T04:33:47;10.10;99.90
8178;DHT22;4130;48.740;9.132;2023-11-19T04:36:18;10.10;99.90
8178;DHT22;4130;48.740;9.132;2023-11-19T04:38:45;10.10;99.90
8178;DHT22;4130;48.740;9.132;2023-11-19T04:41:12;10.10;99.90
8178;DHT22;4130;48.740;9.132;2023-11-19T04:43:41;10.10;99.90
8178;DHT22;4130;48.740;9.132;2023-11-19T04:46:09;10.10;99.90
8178;DHT22;4130;48.740;9.132;2023-11-19T04:48:36;10.10;99.90
8178;DHT22;4130;48.740;9.132;2023-11-19T04:51:04;10.10;99.90
8178;DHT22;4130;48.740;9.132;2023-11-19T04:53:32;10.20;99.90
8178;DHT22;4130;48.740;9.132;2023-11-19T04:55:59;10.20;99.90
8178;DHT22;4130;48.740;9.132;2023-11-19T04:58:26;10.20;99.90
8178;DHT22;4130;48.740;9.132;2023-11-19T05:00:57;10.20;99.90
8178;DHT22;4130;48.740;9.132;2023-11-19T05:03:23;10.30;99.90
8178;DHT22;4130;48.740;9.132;2023-11-19T05:05:50;10.30;99.90
8178;DHT22;4130;48.740;9.132;2023-11-19T05:08:17;10.30;99.90
8178;DHT22;4130;48.740;9.132;2023-11-19T05:10:44;10.30;99.90
8178;DHT22;4130;48.740;9.132;2023-11-19T05:13:10;10.30;99.90
8178;DHT22;4130;48.740;9.132;2023-11-19T05:15:38;10.30;99.90
8178;DHT22;4130;48.740;9.132;2023-11-19T05:18:06;10.30;99.90
8178;DHT22;4130;48.740;9.132;2023-11-19T05:20:33;10.30;99.90
8178;DHT22;4130;48.740;9.132;2023-11-19T05:22:59;10.40;99.90
8178;DHT22;4130;48.740;9.132;2023-11-19T05:25:26;10.30;99.90
8178;DHT22;4130;48.740;9.132;2023-11-19T05:27:53;10.30;99.90
8178;DHT22;4130;48.740;9.132;2023-11-19T05:30:20;10.30;99.90
8178;DHT22;4130;48.740;9.132;2023-11-19T05:32:46;10.30;99.90
8178;DHT22;4130;48.740;9.132;2023-11-19T05:35:15;10.50;99.90
8178;DHT22;4130;48.740;9.132;2023-11-19T05:37:41;10.50;99.90
8178;DHT22;4130;48.740;9.132;2023-11-19T05:40:09;10.40;99.90
8178;DHT22;4130;48.740;9.132;2023-11-19T05:42:39;10.30;99.90
8178;DHT22;4130;48.740;9.132;2023-11-19T05:45:07;10.50;99.90
8178;DHT22;4130;48.740;9.132;2023-11-19T05:47:34;10.40;99.90
8178;DHT22;4130;48.740;9.132;2023-11-19T05:50:01;10.40;99.90
8178;DHT22;4130;48.740;9.132;2023-11-19T05:52:30;10.40;99.90
8178;DHT22;4130;48.740;9.132;2023-11-19T05:54:59;10.30;99.90
8178;DHT22;4130;48.740;9.132;2023-11-19T05:57:27;10.40;99.90
8178;DHT22;4130;48.740;9.132;2023-11-19T05:59:54;10.50;99.90
8178;DHT22;4130;48.740;9.132;2023-11-19T06:02:21;10.40;99.90
8178;DHT22;4130;48.740;9.132;2023-11-19T06:04:48;10.40;99.90
8178;DHT22;4130;48.740;9.132;2023-11-19T06:07:15;10.60;99.90
8178;DHT22;4130;48.740;9.132;2023-11-19T06:09:43;10.40;99.90
8178;DHT22;4130;48.740;9.132;2023-11-19T06:12:10;10.40;99.90
8178;DHT22;4130;48.740;9.132;2023-11-19T06:14:37;10.40;99.90
8178;DHT22;4130;48.740;9.132;2023-11-19T06:17:04;10.50;99.90
8178;DHT22;4130;48.740;9.132;2023-11-19T06:19:31;10.50;99.90
8178;DHT22;4130;48.740;9.132;2023-11-19T06:21:58;10.50;99.90
8178;DHT22;4130;48.740;9.132;2023-11-19T06:24:25;10.60;99.90
8178;DHT22;4130;48.740;9.132;2023-11-19T06:26:53;10.50;99.90
8178;DHT22;4130;48.740;9.132;2023-11-19T06:29:20;10.50;99.90
8178;DHT22;4130;48.740;9.132;2023-11-19T06:31:47;10.50;99.90
8178;DHT22;4130;48.740;9.132;2023-11-19T06:34:14;10.50;99.90
8178;DHT22;4130;48.740;9.132;2023-11-19T06:36:41;10.40;99.90
8178;DHT22;4130;48.740;9.132;2023-11-19T06:39:08;10.50;99.90
8178;DHT22;4130;48.740;9.132;2023-11-19T06:41:36;10.50;99.90
8178;DHT22;4130;48.740;9.132;2023-11-19T06:44:05;10.50;99.90
8178;DHT22;4130;48.740;9.132;2023-11-19T06:46:32;10.50;99.90
8178;DHT22;4130;48.740;9.132;2023-11-19T06:48:58;10.40;99.90
8178;DHT22;4130;48.740;9.132;2023-11-19T06:51:25;10.50;99.90
8178;DHT22;4130;48.740;9.132;2023-11-19T06:53:53;10.50;99.90
8178;DHT22;4130;48.740;9.132;2023-11-19T06:56:20;10.50;99.90
8178;DHT22;4130;48.740;9.132;2023-11-19T06:58:47;10.50;99.90
8178;DHT22;4130;48.740;9.132;2023-11-19T07:01:16;10.50;99.90
8178;DHT22;4130;48.740;9.132;2023-11-19T07:03:44;10.50;99.90
8178;DHT22;4130;48.740;9.132;2023-11-19T07:06:11;10.50;99.90
8178;DHT22;4130;48.740;9.132;2023-11-19T07:08:39;10.50;99.90
8178;DHT22;4130;48.740;9.132;2023-11-19T07:11:07;10.50;99.90
8178;DHT22;4130;48.740;9.132;2023-11-19T07:13:35;10.60;99.90
8178;DHT22;4130;48.740;9.132;2023-11-19T07:16:02;10.50;99.90
8178;DHT22;4130;48.740;9.132;2023-11-19T07:18:30;10.50;99.90
8178;DHT22;4130;48.740;9.132;2023-11-19T07:20:58;10.50;99.90
8178;DHT22;4130;48.740;9.132;2023-11-19T07:23:25;10.50;99.90
8178;DHT22;4130;48.740;9.132;2023-11-19T07:26:04;10.50;99.90
8178;DHT22;4130;48.740;9.132;2023-11-19T07:28:32;10.60;99.90
8178;DHT22;4130;48.740;9.132;2023-11-19T07:30:59;10.60;99.90
8178;DHT22;4130;48.740;9.132;2023-11-19T07:33:25;10.60;99.90
8178;DHT22;4130;48.740;9.132;2023-11-19T07:35:53;10.60;99.90
8178;DHT22;4130;48.740;9.132;2023-11-19T07:38:20;10.60;99.90
8178;DHT22;4130;48.740;9.132;2023-11-19T07:40:57;10.60;99.90
8178;DHT22;4130;48.740;9.132;2023-11-19T07:43:24;10.60;99.90
8178;DHT22;4130;48.740;9.132;2023-11-19T07:45:51;10.60;99.90
8178;DHT22;4130;48.740;9.132;2023-11-19T07:48:17;10.60;99.90
8178;DHT22;4130;48.740;9.132;2023-11-19T07:50:48;10.70;99.90
8178;DHT22;4130;48.740;9.132;2023-11-19T07:53:18;10.70;99.90
8178;DHT22;4130;48.740;9.132;2023-11-19T07:55:45;10.70;99.90
8178;DHT22;4130;48.740;9.132;2023-11-19T07:58:12;10.70;99.90
8178;DHT22;4130;48.740;9.132;2023-11-19T08:00:38;10.80;99.90
8178;DHT22;4130;48.740;9.132;2023-11-19T08:03:06;10.80;99.90
8178;DHT22;4130;48.740;9.132;2023-11-19T08:05:33;10.80;99.90
8178;DHT22;4130;48.740;9.132;2023-11-19T08:07:59;11.60;99.90
8178;DHT22;4130;48.740;9.132;2023-11-19T08:10:28;10.90;99.90
8178;DHT22;4130;48.740;9.132;2023-11-19T08:12:55;10.90;99.90
8178;DHT22;4130;48.740;9.132;2023-11-19T08:15:22;10.90;99.90
8178;DHT22;4130;48.740;9.132;2023-11-19T08:17:51;10.90;99.90
8178;DHT22;4130;48.740;9.132;2023-11-19T08:20:19;10.90;99.90
8178;DHT22;4130;48.740;9.132;2023-11-19T08:22:45;10.90;99.90
8178;DHT22;4130;48.740;9.132;2023-11-19T08:25:12;10.90;99.90
8178;DHT22;4130;48.740;9.132;2023-11-19T08:27:40;11.10;99.90
8178;DHT22;4130;48.740;9.132;2023-11-19T08:30:09;11.10;99.90
8178;DHT22;4130;48.740;9.132;2023-11-19T08:32:36;11.20;99.90
8178;DHT22;4130;48.740;9.132;2023-11-19T08:35:04;11.20;99.90
8178;DHT22;4130;48.740;9.132;2023-11-19T08:37:31;11.30;99.90
8178;DHT22;4130;48.740;9.132;2023-11-19T08:39:58;11.40;99.90
8178;DHT22;4130;48.740;9.132;2023-11-19T08:42:24;11.60;99.90
8178;DHT22;4130;48.740;9.132;2023-11-19T08:44:52;11.50;99.90
8178;DHT22;4130;48.740;9.132;2023-11-19T08:47:20;11.60;99.90
8178;DHT22;4130;48.740;9.132;2023-11-19T08:49:48;11.70;99.90
8178;DHT22;4130;48.740;9.132;2023-11-19T08:52:17;11.70;99.90
8178;DHT22;4130;48.740;9.132;2023-11-19T08:54:44;11.70;99.90
8178;DHT22;4130;48.740;9.132;2023-11-19T08:57:12;11.80;99.90
8178;DHT22;4130;48.740;9.132;2023-11-19T08:59:40;11.70;99.90
8178;DHT22;4130;48.740;9.132;2023-11-19T09:02:14;11.80;99.90
8178;DHT22;4130;48.740;9.132;2023-11-19T09:04:41;11.80;99.90
8178;DHT22;4130;48.740;9.132;2023-11-19T09:07:08;11.90;99.90
8178;DHT22;4130;48.740;9.132;2023-11-19T09:09:36;12.10;99.90
8178;DHT22;4130;48.740;9.132;2023-11-19T09:12:04;12.20;99.90
8178;DHT22;4130;48.740;9.132;2023-11-19T09:14:34;12.30;99.90
8178;DHT22;4130;48.740;9.132;2023-11-19T09:17:01;12.40;99.90
8178;DHT22;4130;48.740;9.132;2023-11-19T09:19:32;12.40;99.90
8178;DHT22;4130;48.740;9.132;2023-11-19T09:22:03;12.30;99.90
8178;DHT22;4130;48.740;9.132;2023-11-19T09:24:30;12.30;99.90
8178;DHT22;4130;48.740;9.132;2023-11-19T09:27:13;12.30;99.90
8178;DHT22;4130;48.740;9.132;2023-11-19T09:29:42;12.40;99.90
8178;DHT22;4130;48.740;9.132;2023-11-19T09:32:09;12.50;99.90
8178;DHT22;4130;48.740;9.132;2023-11-19T09:34:37;12.60;99.90
8178;DHT22;4130;48.740;9.132;2023-11-19T09:37:04;12.70;99.90
8178;DHT22;4130;48.740;9.132;2023-11-19T09:39:30;12.80;99.90
8178;DHT22;4130;48.740;9.132;2023-11-19T09:41:57;12.80;99.90
8178;DHT22;4130;48.740;9.132;2023-11-19T09:44:24;12.90;99.90
8178;DHT22;4130;48.740;9.132;2023-11-19T09:46:52;12.90;99.90
8178;DHT22;4130;48.740;9.132;2023-11-19T09:49:21;13.10;99.90
8178;DHT22;4130;48.740;9.132;2023-11-19T09:51:50;13.10;99.90
8178;DHT22;4130;48.740;9.132;2023-11-19T09:54:17;13.10;99.90
8178;DHT22;4130;48.740;9.132;2023-11-19T09:56:44;13.20;99.90
8178;DHT22;4130;48.740;9.132;2023-11-19T09:59:12;13.30;99.90
8178;DHT22;4130;48.740;9.132;2023-11-19T10:01:39;13.30;99.90
8178;DHT22;4130;48.740;9.132;2023-11-19T10:04:06;13.50;99.90
8178;DHT22;4130;48.740;9.132;2023-11-19T10:06:33;13.50;99.90
8178;DHT22;4130;48.740;9.132;2023-11-19T10:09:01;13.60;99.90
8178;DHT22;4130;48.740;9.132;2023-11-19T10:11:30;13.70;99.90
8178;DHT22;4130;48.740;9.132;2023-11-19T10:13:58;13.70;99.90
8178;DHT22;4130;48.740;9.132;2023-11-19T10:16:29;13.70;99.90
8178;DHT22;4130;48.740;9.132;2023-11-19T10:18:58;13.80;99.90
8178;DHT22;4130;48.740;9.132;2023-11-19T10:21:33;13.90;99.90
8178;DHT22;4130;48.740;9.132;2023-11-19T10:24:02;13.90;99.90
8178;DHT22;4130;48.740;9.132;2023-11-19T10:26:28;14.00;99.90
8178;DHT22;4130;48.740;9.132;2023-11-19T10:28:55;14.00;99.90
8178;DHT22;4130;48.740;9.132;2023-11-19T10:31:29;14.10;99.90
8178;DHT22;4130;48.740;9.132;2023-11-19T10:33:56;14.10;99.90
8178;DHT22;4130;48.740;9.132;2023-11-19T10:36:23;14.20;99.90
8178;DHT22;4130;48.740;9.132;2023-11-19T10:39:06;14.20;99.90
8178;DHT22;4130;48.740;9.132;2023-11-19T10:41:34;14.20;99.90
8178;DHT22;4130;48.740;9.132;2023-11-19T10:44:01;14.20;99.90
8178;DHT22;4130;48.740;9.132;2023-11-19T10:46:38;14.30;99.90
8178;DHT22;4130;48.740;9.132;2023-11-19T10:49:06;14.30;99.90
8178;DHT22;4130;48.740;9.132;2023-11-19T10:51:41;14.40;99.90
8178;DHT22;4130;48.740;9.132;2023-11-19T10:54:11;14.50;99.90
8178;DHT22;4130;48.740;9.132;2023-11-19T10:56:41;14.60;99.90
8178;DHT22;4130;48.740;9.132;2023-11-19T10:59:09;14.70;99.90
8178;DHT22;4130;48.740;9.132;2023-11-19T11:01:42;14.80;99.90
8178;DHT22;4130;48.740;9.132;2023-11-19T11:05:01;15.10;99.90
8178;DHT22;4130;48.740;9.132;2023-11-19T11:15:14;15.20;99.90
8178;DHT22;4130;48.740;9.132;2023-11-19T11:17:43;15.00;99.90
8178;DHT22;4130;48.740;9.132;2023-11-19T11:20:11;14.80;99.90
8178;DHT22;4130;48.740;9.132;2023-11-19T11:22:50;14.60;99.90
8178;DHT22;4130;48.740;9.132;2023-11-19T11:25:29;14.60;99.90
8178;DHT22;4130;48.740;9.132;2023-11-19T11:28:11;14.70;99.90
8178;DHT22;4130;48.740;9.132;2023-11-19T11:30:54;14.80;99.90
8178;DHT22;4130;48.740;9.132;2023-11-19T11:33:32;14.80;99.90
8178;DHT22;4130;48.740;9.132;2023-11-19T11:36:11;14.70;99.90
8178;DHT22;4130;48.740;9.132;2023-11-19T11:38:40;14.60;99.90
8178;DHT22;4130;48.740;9.132;2023-11-19T11:41:18;14.40;99.90
8178;DHT22;4130;48.740;9.132;2023-11-19T11:43:48;14.40;99.90
8178;DHT22;4130;48.740;9.132;2023-11-19T11:49:26;14.60;99.90
8178;DHT22;4130;48.740;9.132;2023-11-19T11:52:02;14.70;99.90
8178;DHT22;4130;48.740;9.132;2023-11-19T11:54:32;14.90;99.90
8178;DHT22;4130;48.740;9.132;2023-11-19T11:57:09;15.00;99.90
8178;DHT22;4130;48.740;9.132;2023-11-19T11:59:42;14.90;99.90
8178;DHT22;4130;48.740;9.132;2023-11-19T12:02:10;14.90;99.90
8178;DHT22;4130;48.740;9.132;2023-11-19T12:04:39;14.80;99.90
8178;DHT22;4130;48.740;9.132;2023-11-19T12:07:06;14.80;99.90
8178;DHT22;4130;48.740;9.132;2023-11-19T12:09:33;14.80;99.90
8178;DHT22;4130;48.740;9.132;2023-11-19T12:12:23;14.70;99.90
8178;DHT22;4130;48.740;9.132;2023-11-19T12:15:06;14.50;99.90
8178;DHT22;4130;48.740;9.132;2023-11-19T12:17:47;14.30;99.90
8178;DHT22;4130;48.740;9.132;2023-11-19T12:20:20;14.20;99.90
8178;DHT22;4130;48.740;9.132;2023-11-19T12:22:47;14.20;99.90
8178;DHT22;4130;48.740;9.132;2023-11-19T12:25:16;14.20;99.90
8178;DHT22;4130;48.740;9.132;2023-11-19T12:27:44;14.30;99.90
8178;DHT22;4130;48.740;9.132;2023-11-19T12:30:12;14.30;99.90
8178;DHT22;4130;48.740;9.132;2023-11-19T12:32:40;14.30;99.90
8178;DHT22;4130;48.740;9.132;2023-11-19T12:35:08;14.20;99.90
8178;DHT22;4130;48.740;9.132;2023-11-19T12:37:41;14.20;99.90
8178;DHT22;4130;48.740;9.132;2023-11-19T12:40:16;14.20;99.90
8178;DHT22;4130;48.740;9.132;2023-11-19T12:42:43;14.20;99.90
8178;DHT22;4130;48.740;9.132;2023-11-19T12:45:10;14.30;99.90
8178;DHT22;4130;48.740;9.132;2023-11-19T12:47:38;14.40;99.90
8178;DHT22;4130;48.740;9.132;2023-11-19T12:50:05;14.50;99.90
8178;DHT22;4130;48.740;9.132;2023-11-19T12:52:33;14.50;99.90
8178;DHT22;4130;48.740;9.132;2023-11-19T12:55:02;14.50;99.90
8178;DHT22;4130;48.740;9.132;2023-11-19T12:57:39;14.50;99.90
8178;DHT22;4130;48.740;9.132;2023-11-19T13:00:07;14.40;99.90
8178;DHT22;4130;48.740;9.132;2023-11-19T13:02:45;14.40;99.90
8178;DHT22;4130;48.740;9.132;2023-11-19T13:05:36;14.50;99.90
8178;DHT22;4130;48.740;9.132;2023-11-19T13:08:04;14.40;99.90
8178;DHT22;4130;48.740;9.132;2023-11-19T13:10:33;14.50;99.90
8178;DHT22;4130;48.740;9.132;2023-11-19T13:13:05;14.50;99.90
8178;DHT22;4130;48.740;9.132;2023-11-19T13:15:34;14.60;99.90
8178;DHT22;4130;48.740;9.132;2023-11-19T13:18:00;14.50;99.90
8178;DHT22;4130;48.740;9.132;2023-11-19T13:20:27;14.40;99.90
8178;DHT22;4130;48.740;9.132;2023-11-19T13:22:58;14.30;99.90
8178;DHT22;4130;48.740;9.132;2023-11-19T13:25:25;14.20;99.90
8178;DHT22;4130;48.740;9.132;2023-11-19T13:27:54;14.30;99.90
8178;DHT22;4130;48.740;9.132;2023-11-19T13:30:21;14.30;99.90
8178;DHT22;4130;48.740;9.132;2023-11-19T13:32:48;14.20;99.90
8178;DHT22;4130;48.740;9.132;2023-11-19T13:35:16;14.20;99.90
8178;DHT22;4130;48.740;9.132;2023-11-19T13:37:43;14.10;99.90
8178;DHT22;4130;48.740;9.132;2023-11-19T13:40:11;14.10;99.90
8178;DHT22;4130;48.740;9.132;2023-11-19T13:42:39;14.00;99.90
8178;DHT22;4130;48.740;9.132;2023-11-19T13:45:09;14.00;99.90
8178;DHT22;4130;48.740;9.132;2023-11-19T13:47:38;13.90;99.90
8178;DHT22;4130;48.740;9.132;2023-11-19T13:50:07;13.80;99.90
8178;DHT22;4130;48.740;9.132;2023-11-19T13:52:34;13.70;99.90
8178;DHT22;4130;48.740;9.132;2023-11-19T13:55:02;13.70;99.90
8178;DHT22;4130;48.740;9.132;2023-11-19T13:57:30;13.70;99.90
8178;DHT22;4130;48.740;9.132;2023-11-19T13:59:57;13.70;99.90
8178;DHT22;4130;48.740;9.132;2023-11-19T14:02:25;13.70;99.90
8178;DHT22;4130;48.740;9.132;2023-11-19T14:04:51;13.60;99.90
8178;DHT22;4130;48.740;9.132;2023-11-19T14:07:18;13.60;99.90
8178;DHT22;4130;48.740;9.132;2023-11-19T14:09:45;13.50;99.90
8178;DHT22;4130;48.740;9.132;2023-11-19T14:12:12;13.60;99.90
8178;DHT22;4130;48.740;9.132;2023-11-19T14:14:39;13.60;99.90
8178;DHT22;4130;48.740;9.132;2023-11-19T14:17:07;13.60;99.90
8178;DHT22;4130;48.740;9.132;2023-11-19T14:19:35;13.60;99.90
8178;DHT22;4130;48.740;9.132;2023-11-19T14:22:02;13.60;99.90
8178;DHT22;4130;48.740;9.132;2023-11-19T14:24:29;13.70;99.90
8178;DHT22;4130;48.740;9.132;2023-11-19T14:26:55;13.80;99.90
8178;DHT22;4130;48.740;9.132;2023-11-19T14:29:24;13.70;99.90
8178;DHT22;4130;48.740;9.132;2023-11-19T14:31:52;13.70;99.90
8178;DHT22;4130;48.740;9.132;2023-11-19T14:34:19;13.70;99.90
8178;DHT22;4130;48.740;9.132;2023-11-19T14:36:47;13.60;99.90
8178;DHT22;4130;48.740;9.132;2023-11-19T14:39:15;13.50;99.90
8178;DHT22;4130;48.740;9.132;2023-11-19T14:41:42;13.60;99.90
8178;DHT22;4130;48.740;9.132;2023-11-19T14:44:09;13.40;99.90
8178;DHT22;4130;48.740;9.132;2023-11-19T14:46:36;13.40;99.90
8178;DHT22;4130;48.740;9.132;2023-11-19T14:49:03;13.50;99.90
8178;DHT22;4130;48.740;9.132;2023-11-19T14:51:30;13.40;99.90
8178;DHT22;4130;48.740;9.132;2023-11-19T14:53:58;13.40;99.90
8178;DHT22;4130;48.740;9.132;2023-11-19T14:56:25;13.60;99.90
8178;DHT22;4130;48.740;9.132;2023-11-19T14:58:52;13.10;99.90
8178;DHT22;4130;48.740;9.132;2023-11-19T15:01:19;13.20;99.90
8178;DHT22;4130;48.740;9.132;2023-11-19T15:03:45;13.10;99.90
8178;DHT22;4130;48.740;9.132;2023-11-19T15:06:12;13.10;99.90
8178;DHT22;4130;48.740;9.132;2023-11-19T15:08:39;13.10;99.90
8178;DHT22;4130;48.740;9.132;2023-11-19T15:11:08;13.10;99.90
8178;DHT22;4130;48.740;9.132;2023-11-19T15:13:37;13.10;99.90
8178;DHT22;4130;48.740;9.132;2023-11-19T15:16:07;13.10;99.90
8178;DHT22;4130;48.740;9.132;2023-11-19T15:18:36;13.10;99.90
8178;DHT22;4130;48.740;9.132;2023-11-19T15:21:03;12.90;99.90
8178;DHT22;4130;48.740;9.132;2023-11-19T15:23:29;12.90;99.90
8178;DHT22;4130;48.740;9.132;2023-11-19T15:25:56;12.80;99.90
8178;DHT22;4130;48.740;9.132;2023-11-19T15:28:24;12.70;99.90
8178;DHT22;4130;48.740;9.132;2023-11-19T15:30:51;12.70;99.90
8178;DHT22;4130;48.740;9.132;2023-11-19T15:33:18;12.60;99.90
8178;DHT22;4130;48.740;9.132;2023-11-19T15:35:44;12.70;99.90
8178;DHT22;4130;48.740;9.132;2023-11-19T15:38:11;12.60;99.90
8178;DHT22;4130;48.740;9.132;2023-11-19T15:40:38;12.50;99.90
8178;DHT22;4130;48.740;9.132;2023-11-19T15:43:05;12.40;99.90
8178;DHT22;4130;48.740;9.132;2023-11-19T15:45:34;12.30;99.90
8178;DHT22;4130;48.740;9.132;2023-11-19T15:48:03;12.20;99.90
8178;DHT22;4130;48.740;9.132;2023-11-19T15:50:30;12.20;99.90
8178;DHT22;4130;48.740;9.132;2023-11-19T15:52:57;12.30;99.90
8178;DHT22;4130;48.740;9.132;2023-11-19T15:55:27;12.40;99.90
8178;DHT22;4130;48.740;9.132;2023-11-19T15:57:53;12.20;99.90
8178;DHT22;4130;48.740;9.132;2023-11-19T16:00:20;12.10;99.90
8178;DHT22;4130;48.740;9.132;2023-11-19T16:02:48;12.10;99.90
8178;DHT22;4130;48.740;9.132;2023-11-19T16:05:15;12.10;99.90
8178;DHT22;4130;48.740;9.132;2023-11-19T16:07:42;12.20;99.90
8178;DHT22;4130;48.740;9.132;2023-11-19T16:10:09;12.30;99.90
8178;DHT22;4130;48.740;9.132;2023-11-19T16:12:38;12.20;99.90
8178;DHT22;4130;48.740;9.132;2023-11-19T16:15:05;12.10;99.90
8178;DHT22;4130;48.740;9.132;2023-11-19T16:17:33;11.90;99.90
8178;DHT22;4130;48.740;9.132;2023-11-19T16:20:03;11.80;99.90
8178;DHT22;4130;48.740;9.132;2023-11-19T16:22:32;11.60;99.90
8178;DHT22;4130;48.740;9.132;2023-11-19T16:24:59;11.40;99.90
8178;DHT22;4130;48.740;9.132;2023-11-19T16:27:26;11.30;99.90